MAS1 EGLL-WMKK
Flight info
| Callsign | MAS1 |
|---|---|
| Flight time | N/A |
| Altitude | 33000 |
| Route | BPK Q295 MATCH DCT REDFA DCT TACHA DCT KUMER DCT OMELO DCT HAFAF DCT KEKED DCT SAT DCT VAMES DCT DOKUD DCT URELA DCT REVDA DCT UDROS UM859 KARDE UL851 OLUPO/N0493F350 UL851 TBN UR317 REBLO M11 LUSAL N701 LARGI B701 TUGTA A909 ABDAN A846 RANAH L750 GODSI/N0495F370 L750 ZB G202 RK P628 IBANI L510 GURVI T1 BBS L759 LIBDI/N0490F390 L759 PUT B579 VPL Y503 RINBA Y507 KAKAK KAKAK1G |
| Aircraft | A359/H-SDE2E3GHIJ3J4J5LM1ORWXY/LB1D1 |
Departure
| Time | 2026-05-07 20:11 |
|---|---|
| Airport | London Heathrow Airport (EGLL) |
Arrival
| Time | N/A |
|---|---|
| Airport | Kuala Lumpur International Airport (WMKK) |
| Time | Latitude | Longitude | Altitude | Speed | Heading |
|---|---|---|---|---|---|
| 2026-05-07 19:15 | 51.46128 | -0.44725 | 92 ft | 0 kts | 131° |
| 2026-05-07 19:54 | 51.46140 | -0.44748 | 94 ft | 4 kts | 131° |
| 2026-05-07 19:54 | 51.46157 | -0.44778 | 93 ft | 2 kts | 131° |
| 2026-05-07 19:54 | 51.46171 | -0.44808 | 93 ft | 4 kts | 107° |
| 2026-05-07 19:55 | 51.46171 | -0.44847 | 94 ft | 4 kts | 61° |
| 2026-05-07 19:55 | 51.46155 | -0.44877 | 93 ft | 4 kts | 41° |
| 2026-05-07 19:55 | 51.46135 | -0.44906 | 92 ft | 4 kts | 41° |
| 2026-05-07 19:55 | 51.46119 | -0.44929 | 94 ft | 2 kts | 41° |
| 2026-05-07 19:56 | 51.46099 | -0.44957 | 92 ft | 3 kts | 41° |
| 2026-05-07 19:56 | 51.46096 | -0.44962 | 94 ft | 0 kts | 41° |
| 2026-05-07 19:58 | 51.46099 | -0.44958 | 92 ft | 2 kts | 41° |
| 2026-05-07 19:59 | 51.46128 | -0.44916 | 93 ft | 9 kts | 42° |
| 2026-05-07 19:59 | 51.46189 | -0.44826 | 83 ft | 15 kts | 42° |
| 2026-05-07 19:59 | 51.46285 | -0.44728 | 97 ft | 16 kts | 356° |
| 2026-05-07 19:59 | 51.46318 | -0.44837 | 95 ft | 14 kts | 270° |
| 2026-05-07 20:00 | 51.46319 | -0.45016 | 97 ft | 18 kts | 270° |
| 2026-05-07 20:00 | 51.46317 | -0.45241 | 96 ft | 22 kts | 269° |
| 2026-05-07 20:00 | 51.46316 | -0.45499 | 96 ft | 23 kts | 270° |
| 2026-05-07 20:00 | 51.46324 | -0.45748 | 92 ft | 22 kts | 270° |
| 2026-05-07 20:01 | 51.46324 | -0.45993 | 92 ft | 22 kts | 269° |
| 2026-05-07 20:01 | 51.46323 | -0.46231 | 92 ft | 21 kts | 269° |
| 2026-05-07 20:01 | 51.46322 | -0.46462 | 92 ft | 21 kts | 269° |
| 2026-05-07 20:01 | 51.46322 | -0.46691 | 92 ft | 20 kts | 270° |
| 2026-05-07 20:02 | 51.46322 | -0.46915 | 92 ft | 20 kts | 270° |
| 2026-05-07 20:02 | 51.46322 | -0.47135 | 95 ft | 19 kts | 271° |
| 2026-05-07 20:02 | 51.46326 | -0.47336 | 95 ft | 17 kts | 279° |
| 2026-05-07 20:02 | 51.46339 | -0.47519 | 95 ft | 16 kts | 272° |
| 2026-05-07 20:03 | 51.46316 | -0.47687 | 97 ft | 15 kts | 241° |
| 2026-05-07 20:03 | 51.46264 | -0.47829 | 98 ft | 15 kts | 246° |
| 2026-05-07 20:03 | 51.46247 | -0.47985 | 95 ft | 13 kts | 265° |
| 2026-05-07 20:03 | 51.46248 | -0.48139 | 93 ft | 15 kts | 270° |
| 2026-05-07 20:04 | 51.46250 | -0.48312 | 90 ft | 16 kts | 270° |
| 2026-05-07 20:04 | 51.46250 | -0.48484 | 92 ft | 15 kts | 269° |
| 2026-05-07 20:04 | 51.46249 | -0.48519 | 92 ft | 0 kts | 269° |
| 2026-05-07 20:06 | 51.46250 | -0.48539 | 92 ft | 5 kts | 272° |
| 2026-05-07 20:06 | 51.46264 | -0.48631 | 97 ft | 11 kts | 293° |
| 2026-05-07 20:06 | 51.46288 | -0.48683 | 96 ft | 0 kts | 316° |
| 2026-05-07 20:08 | 51.46292 | -0.48689 | 95 ft | 5 kts | 316° |
| 2026-05-07 20:08 | 51.46346 | -0.48744 | 97 ft | 11 kts | 341° |
| 2026-05-07 20:09 | 51.46430 | -0.48752 | 95 ft | 12 kts | 4° |
| 2026-05-07 20:09 | 51.46479 | -0.48678 | 95 ft | 10 kts | 80° |
| 2026-05-07 20:09 | 51.46479 | -0.48623 | 93 ft | 0 kts | 90° |
| 2026-05-07 20:10 | 51.46479 | -0.48621 | 96 ft | 2 kts | 90° |
| 2026-05-07 20:10 | 51.46480 | -0.48392 | 93 ft | 49 kts | 90° |
| 2026-05-07 20:10 | 51.46479 | -0.47475 | 94 ft | 113 kts | 90° |
| 2026-05-07 20:10 | 51.46488 | -0.45902 | 97 ft | 168 kts | 89° |
| 2026-05-07 20:11 | 51.46521 | -0.43976 | 765 ft | 164 kts | 89° |
| 2026-05-07 20:11 | 51.46733 | -0.42217 | 1504 ft | 168 kts | 68° |
| 2026-05-07 20:11 | 51.47454 | -0.40632 | 1751 ft | 183 kts | 47° |
| 2026-05-07 20:11 | 51.48365 | -0.39128 | 1939 ft | 195 kts | 47° |
| 2026-05-07 20:12 | 51.49314 | -0.37464 | 2113 ft | 210 kts | 51° |
| 2026-05-07 20:12 | 51.50281 | -0.35595 | 2277 ft | 224 kts | 52° |
| 2026-05-07 20:12 | 51.51301 | -0.33608 | 2515 ft | 238 kts | 52° |
| 2026-05-07 20:12 | 51.52181 | -0.31298 | 2780 ft | 248 kts | 69° |
| 2026-05-07 20:13 | 51.52686 | -0.28636 | 3257 ft | 249 kts | 76° |
| 2026-05-07 20:13 | 51.53166 | -0.25958 | 3795 ft | 249 kts | 72° |
| 2026-05-07 20:13 | 51.53756 | -0.23326 | 4273 ft | 252 kts | 65° |
| 2026-05-07 20:13 | 51.54783 | -0.21050 | 4707 ft | 256 kts | 41° |
| 2026-05-07 20:14 | 51.56346 | -0.19667 | 5130 ft | 260 kts | 21° |
| 2026-05-07 20:14 | 51.58055 | -0.18619 | 5524 ft | 265 kts | 22° |
| 2026-05-07 20:14 | 51.59778 | -0.17535 | 5937 ft | 270 kts | 20° |
| 2026-05-07 20:14 | 51.61582 | -0.16638 | 5987 ft | 270 kts | 15° |
| 2026-05-07 20:15 | 51.63406 | -0.15886 | 5991 ft | 271 kts | 14° |
| 2026-05-07 20:15 | 51.65205 | -0.15100 | 5997 ft | 271 kts | 15° |
| 2026-05-07 20:15 | 51.67026 | -0.14277 | 6007 ft | 271 kts | 15° |
| 2026-05-07 20:15 | 51.68841 | -0.13440 | 6026 ft | 272 kts | 16° |
| 2026-05-07 20:16 | 51.70655 | -0.12593 | 6036 ft | 272 kts | 16° |
| 2026-05-07 20:16 | 51.72476 | -0.11735 | 6027 ft | 272 kts | 17° |
| 2026-05-07 20:16 | 51.74179 | -0.10430 | 5988 ft | 271 kts | 35° |
| 2026-05-07 20:16 | 51.75434 | -0.08246 | 6167 ft | 267 kts | 64° |
| 2026-05-07 20:17 | 51.75948 | -0.05335 | 6370 ft | 275 kts | 82° |
| 2026-05-07 20:17 | 51.76136 | -0.02269 | 6873 ft | 276 kts | 86° |
| 2026-05-07 20:17 | 51.76238 | 0.00835 | 7427 ft | 277 kts | 88° |
| 2026-05-07 20:17 | 51.76352 | 0.03960 | 7940 ft | 280 kts | 86° |
| 2026-05-07 20:18 | 51.76513 | 0.07120 | 8393 ft | 285 kts | 85° |
| 2026-05-07 20:18 | 51.76722 | 0.10315 | 8865 ft | 288 kts | 84° |
| 2026-05-07 20:18 | 51.76964 | 0.13537 | 9057 ft | 289 kts | 84° |
| 2026-05-07 20:18 | 51.77224 | 0.16732 | 9073 ft | 291 kts | 83° |
| 2026-05-07 20:19 | 51.77496 | 0.19968 | 9071 ft | 291 kts | 83° |
| 2026-05-07 20:19 | 51.77777 | 0.23208 | 9070 ft | 291 kts | 82° |
| 2026-05-07 20:19 | 51.78189 | 0.26408 | 9071 ft | 292 kts | 78° |
| 2026-05-07 20:19 | 51.78662 | 0.29611 | 9079 ft | 292 kts | 77° |
| 2026-05-07 20:20 | 51.79155 | 0.32780 | 9080 ft | 291 kts | 76° |
| 2026-05-07 20:20 | 51.79663 | 0.35959 | 9242 ft | 292 kts | 76° |
| 2026-05-07 20:20 | 51.80177 | 0.39158 | 9580 ft | 296 kts | 76° |
| 2026-05-07 20:20 | 51.80694 | 0.42371 | 10165 ft | 295 kts | 76° |
| 2026-05-07 20:21 | 51.81216 | 0.45639 | 10480 ft | 306 kts | 77° |
| 2026-05-07 20:21 | 51.81757 | 0.49045 | 10726 ft | 318 kts | 77° |
| 2026-05-07 20:21 | 51.82313 | 0.52570 | 10990 ft | 329 kts | 77° |
| 2026-05-07 20:21 | 51.82892 | 0.56246 | 11085 ft | 347 kts | 77° |
| 2026-05-07 20:22 | 51.83504 | 0.60141 | 11084 ft | 366 kts | 77° |
| 2026-05-07 20:22 | 51.84144 | 0.64228 | 11083 ft | 383 kts | 77° |
| 2026-05-07 20:22 | 51.84808 | 0.68463 | 11117 ft | 390 kts | 77° |
| 2026-05-07 20:22 | 51.85479 | 0.72747 | 11546 ft | 393 kts | 77° |
| 2026-05-07 20:23 | 51.86141 | 0.76978 | 12108 ft | 394 kts | 77° |
| 2026-05-07 20:23 | 51.86812 | 0.81290 | 12601 ft | 397 kts | 77° |
| 2026-05-07 20:23 | 51.87487 | 0.85643 | 13081 ft | 400 kts | 77° |
| 2026-05-07 20:23 | 51.88165 | 0.90030 | 13561 ft | 403 kts | 77° |
| 2026-05-07 20:24 | 51.88847 | 0.94457 | 14018 ft | 406 kts | 77° |
| 2026-05-07 20:24 | 51.89531 | 0.98905 | 14430 ft | 409 kts | 77° |
| 2026-05-07 20:24 | 51.89987 | 1.01880 | 14718 ft | 410 kts | 77° |
| 2026-05-07 20:24 | 51.90674 | 1.06373 | 15132 ft | 413 kts | 77° |
| 2026-05-07 20:25 | 51.91365 | 1.10899 | 15540 ft | 416 kts | 77° |
| 2026-05-07 20:25 | 51.92061 | 1.15476 | 15948 ft | 419 kts | 77° |
| 2026-05-07 20:25 | 51.92758 | 1.20065 | 16354 ft | 421 kts | 77° |
| 2026-05-07 20:25 | 51.93459 | 1.24703 | 16771 ft | 424 kts | 77° |
| 2026-05-07 20:26 | 51.94163 | 1.29367 | 17175 ft | 427 kts | 77° |
| 2026-05-07 20:26 | 51.94868 | 1.34058 | 17573 ft | 430 kts | 77° |
| 2026-05-07 20:26 | 51.95575 | 1.38770 | 17995 ft | 432 kts | 77° |
| 2026-05-07 20:26 | 51.96287 | 1.43537 | 18399 ft | 435 kts | 77° |
| 2026-05-07 20:27 | 51.96999 | 1.48314 | 18753 ft | 438 kts | 77° |
| 2026-05-07 20:27 | 51.97716 | 1.53140 | 19145 ft | 440 kts | 77° |
| 2026-05-07 20:27 | 51.98434 | 1.57986 | 19508 ft | 443 kts | 77° |
| 2026-05-07 20:27 | 51.99152 | 1.62855 | 19901 ft | 446 kts | 77° |
| 2026-05-07 20:28 | 51.99867 | 1.67712 | 20277 ft | 449 kts | 77° |
| 2026-05-07 20:28 | 52.00603 | 1.72723 | 20666 ft | 452 kts | 77° |
| 2026-05-07 20:28 | 52.01322 | 1.77639 | 21045 ft | 454 kts | 77° |
| 2026-05-07 20:28 | 52.02051 | 1.82642 | 21421 ft | 457 kts | 77° |
| 2026-05-07 20:29 | 52.02784 | 1.87682 | 21788 ft | 460 kts | 77° |
| 2026-05-07 20:29 | 52.03519 | 1.92757 | 22179 ft | 462 kts | 77° |
| 2026-05-07 20:29 | 52.04257 | 1.97873 | 22563 ft | 464 kts | 77° |
| 2026-05-07 20:29 | 52.04994 | 2.02991 | 22950 ft | 467 kts | 77° |
| 2026-05-07 20:30 | 52.05733 | 2.08143 | 23314 ft | 470 kts | 77° |
| 2026-05-07 20:30 | 52.06473 | 2.13327 | 23662 ft | 473 kts | 77° |
| 2026-05-07 20:30 | 52.07209 | 2.18493 | 23965 ft | 475 kts | 77° |
| 2026-05-07 20:30 | 52.07963 | 2.23804 | 24280 ft | 478 kts | 77° |
| 2026-05-07 20:31 | 52.08700 | 2.29018 | 24591 ft | 480 kts | 77° |
| 2026-05-07 20:31 | 52.09448 | 2.34319 | 24900 ft | 482 kts | 77° |
| 2026-05-07 20:31 | 52.10206 | 2.39716 | 25216 ft | 484 kts | 77° |
| 2026-05-07 20:31 | 52.10946 | 2.45003 | 25505 ft | 487 kts | 77° |
| 2026-05-07 20:32 | 52.11698 | 2.50376 | 25840 ft | 488 kts | 77° |
| 2026-05-07 20:32 | 52.12574 | 2.55721 | 26156 ft | 490 kts | 73° |
| 2026-05-07 20:32 | 52.13590 | 2.61035 | 26434 ft | 492 kts | 72° |
| 2026-05-07 20:32 | 52.14661 | 2.66340 | 26709 ft | 494 kts | 72° |
| 2026-05-07 20:33 | 52.15742 | 2.71684 | 26988 ft | 497 kts | 72° |
| 2026-05-07 20:33 | 52.16810 | 2.77056 | 27272 ft | 499 kts | 72° |
| 2026-05-07 20:33 | 52.17857 | 2.82445 | 27546 ft | 501 kts | 72° |
| 2026-05-07 20:33 | 52.18895 | 2.87884 | 27806 ft | 503 kts | 73° |
| 2026-05-07 20:34 | 52.19911 | 2.93284 | 28050 ft | 505 kts | 73° |
| 2026-05-07 20:34 | 52.20935 | 2.98768 | 28326 ft | 506 kts | 73° |
| 2026-05-07 20:34 | 52.21956 | 3.04264 | 28594 ft | 507 kts | 73° |
| 2026-05-07 20:34 | 52.22979 | 3.09783 | 28814 ft | 509 kts | 73° |
| 2026-05-07 20:35 | 52.24002 | 3.15319 | 29100 ft | 510 kts | 73° |
| 2026-05-07 20:35 | 52.24830 | 3.20936 | 29516 ft | 507 kts | 81° |
| 2026-05-07 20:35 | 52.25183 | 3.26634 | 29919 ft | 503 kts | 90° |
| 2026-05-07 20:35 | 52.25071 | 3.32325 | 30187 ft | 502 kts | 95° |
| 2026-05-07 20:36 | 52.24787 | 3.38010 | 30402 ft | 502 kts | 97° |
| 2026-05-07 20:36 | 52.24426 | 3.43675 | 30639 ft | 502 kts | 97° |
| 2026-05-07 20:36 | 52.24030 | 3.49330 | 30883 ft | 501 kts | 98° |
| 2026-05-07 20:36 | 52.23626 | 3.54966 | 31143 ft | 500 kts | 98° |
| 2026-05-07 20:37 | 52.23222 | 3.60607 | 31360 ft | 500 kts | 98° |
| 2026-05-07 20:37 | 52.22825 | 3.66231 | 31556 ft | 500 kts | 98° |
| 2026-05-07 20:37 | 52.22430 | 3.71875 | 31736 ft | 500 kts | 97° |
| 2026-05-07 20:37 | 52.22038 | 3.77519 | 31852 ft | 502 kts | 97° |
| 2026-05-07 20:38 | 52.21644 | 3.83175 | 32055 ft | 502 kts | 97° |
| 2026-05-07 20:38 | 52.21251 | 3.88818 | 32260 ft | 501 kts | 97° |
| 2026-05-07 20:38 | 52.20854 | 3.94459 | 32443 ft | 501 kts | 98° |
| 2026-05-07 20:38 | 52.20456 | 4.00091 | 32701 ft | 499 kts | 98° |
| 2026-05-07 20:39 | 52.20055 | 4.05703 | 32907 ft | 498 kts | 98° |
| 2026-05-07 20:39 | 52.19651 | 4.11330 | 33031 ft | 499 kts | 98° |
| 2026-05-07 20:39 | 52.19242 | 4.16969 | 33018 ft | 502 kts | 98° |
| 2026-05-07 20:40 | 52.18412 | 4.28309 | 33089 ft | 505 kts | 98° |
| 2026-05-07 20:40 | 52.17575 | 4.39601 | 33079 ft | 504 kts | 98° |
| 2026-05-07 20:41 | 52.16717 | 4.51014 | 33083 ft | 504 kts | 98° |
| 2026-05-07 20:41 | 52.15855 | 4.62337 | 33079 ft | 504 kts | 98° |
| 2026-05-07 20:42 | 52.14986 | 4.73611 | 33095 ft | 504 kts | 98° |
| 2026-05-07 20:42 | 52.14101 | 4.84942 | 33095 ft | 504 kts | 98° |
| 2026-05-07 20:43 | 52.13206 | 4.96260 | 33092 ft | 503 kts | 98° |
| 2026-05-07 20:43 | 52.12301 | 5.07553 | 33089 ft | 503 kts | 98° |
| 2026-05-07 20:44 | 52.11385 | 5.18855 | 33091 ft | 503 kts | 98° |
| 2026-05-07 20:44 | 52.10459 | 5.30136 | 33077 ft | 503 kts | 99° |
| 2026-05-07 20:45 | 52.09523 | 5.41409 | 33073 ft | 503 kts | 99° |
| 2026-05-07 20:45 | 52.08582 | 5.52603 | 33091 ft | 502 kts | 99° |
| 2026-05-07 20:46 | 52.07625 | 5.63863 | 33092 ft | 502 kts | 99° |
| 2026-05-07 20:46 | 52.06656 | 5.75122 | 33094 ft | 502 kts | 99° |
| 2026-05-07 20:47 | 52.05677 | 5.86373 | 33113 ft | 502 kts | 99° |
| 2026-05-07 20:47 | 52.04689 | 5.97603 | 33088 ft | 501 kts | 99° |